sensor_id;sensor_type;location;lat;lon;timestamp;pressure;altitude;pressure_sealevel;temperature;humidity
20897;BME280;10608;42.600;23.398;2023-11-19T00:00:27;38754.16;;;-138.15;59.28
20897;BME280;10608;42.600;23.398;2023-11-19T00:02:52;38740.41;;;-138.15;59.29
20897;BME280;10608;42.600;23.398;2023-11-19T00:05:18;38754.16;;;-138.15;59.11
20897;BME280;10608;42.600;23.398;2023-11-19T00:07:43;38773.81;;;-138.15;58.57
20897;BME280;10608;42.600;23.398;2023-11-19T00:10:13;38746.31;;;-138.15;59.23
20897;BME280;10608;42.600;23.398;2023-11-19T00:12:41;38734.50;;;-138.15;58.79
20897;BME280;10608;42.600;23.398;2023-11-19T00:15:07;38748.28;;;-138.15;58.99
20897;BME280;10608;42.600;23.398;2023-11-19T00:17:40;38764.00;;;-138.15;58.79
20897;BME280;10608;42.600;23.398;2023-11-19T00:20:07;38746.31;;;-138.15;58.74
20897;BME280;10608;42.600;23.398;2023-11-19T00:22:33;38726.66;;;-138.15;58.71
20897;BME280;10608;42.600;23.398;2023-11-19T00:24:59;38754.16;;;-138.15;58.41
20897;BME280;10608;42.600;23.398;2023-11-19T00:27:25;38740.41;;;-138.15;58.61
20897;BME280;10608;42.600;23.398;2023-11-19T00:29:50;38767.91;;;-138.15;58.54
20897;BME280;10608;42.600;23.398;2023-11-19T00:32:15;38738.44;;;-138.15;58.63
20897;BME280;10608;42.600;23.398;2023-11-19T00:34:44;38767.91;;;-138.15;58.57
20897;BME280;10608;42.600;23.398;2023-11-19T00:37:09;38754.16;;;-138.15;58.27
20897;BME280;10608;42.600;23.398;2023-11-19T00:39:35;38771.84;;;-138.15;58.22
20897;BME280;10608;42.600;23.398;2023-11-19T00:42:00;38748.28;;;-138.15;58.33
20897;BME280;10608;42.600;23.398;2023-11-19T00:44:25;38817.06;;;-138.15;57.76
20897;BME280;10608;42.600;23.398;2023-11-19T00:46:51;38777.75;;;-138.15;58.49
20897;BME280;10608;42.600;23.398;2023-11-19T00:49:16;38793.47;;;-138.15;58.15
20897;BME280;10608;42.600;23.398;2023-11-19T00:51:41;38767.91;;;-138.15;58.06
20897;BME280;10608;42.600;23.398;2023-11-19T00:54:07;38762.03;;;-138.15;57.89
20897;BME280;10608;42.600;23.398;2023-11-19T00:56:32;38765.97;;;-138.15;58.10
20897;BME280;10608;42.600;23.398;2023-11-19T00:58:58;38773.81;;;-138.15;57.92
20897;BME280;10608;42.600;23.398;2023-11-19T01:01:25;38783.66;;;-138.15;58.12
20897;BME280;10608;42.600;23.398;2023-11-19T01:03:50;38775.78;;;-138.15;58.41
20897;BME280;10608;42.600;23.398;2023-11-19T01:06:29;38787.56;;;-138.15;58.77
20897;BME280;10608;42.600;23.398;2023-11-19T01:08:56;38793.47;;;-138.15;58.31
20897;BME280;10608;42.600;23.398;2023-11-19T01:11:23;38793.47;;;-138.15;58.28
20897;BME280;10608;42.600;23.398;2023-11-19T01:13:49;38805.28;;;-138.15;58.72
20897;BME280;10608;42.600;23.398;2023-11-19T01:16:15;38793.47;;;-138.15;58.78
20897;BME280;10608;42.600;23.398;2023-11-19T01:18:40;38781.69;;;-138.15;58.51
20897;BME280;10608;42.600;23.398;2023-11-19T01:21:06;38752.19;;;-138.15;58.57
20897;BME280;10608;42.600;23.398;2023-11-19T01:23:31;38765.97;;;-138.15;58.67
20897;BME280;10608;42.600;23.398;2023-11-19T01:25:58;38769.88;;;-138.15;59.03
20897;BME280;10608;42.600;23.398;2023-11-19T01:28:23;38781.69;;;-138.15;58.65
20897;BME280;10608;42.600;23.398;2023-11-19T01:30:50;38789.53;;;-138.15;58.52
20897;BME280;10608;42.600;23.398;2023-11-19T01:33:16;38789.53;;;-138.15;57.86
20897;BME280;10608;42.600;23.398;2023-11-19T01:35:41;38779.72;;;-138.15;58.91
20897;BME280;10608;42.600;23.398;2023-11-19T01:38:07;38793.47;;;-138.15;58.28
20897;BME280;10608;42.600;23.398;2023-11-19T01:40:34;38771.84;;;-138.15;58.13
20897;BME280;10608;42.600;23.398;2023-11-19T01:42:59;38805.28;;;-138.15;58.33
20897;BME280;10608;42.600;23.398;2023-11-19T01:45:29;38781.69;;;-138.15;57.98
20897;BME280;10608;42.600;23.398;2023-11-19T01:47:56;38685.38;;;-138.15;58.33
20897;BME280;10608;42.600;23.398;2023-11-19T01:50:23;38781.69;;;-138.15;58.26
20897;BME280;10608;42.600;23.398;2023-11-19T01:52:52;38797.41;;;-138.15;57.85
20897;BME280;10608;42.600;23.398;2023-11-19T01:55:19;38777.75;;;-138.15;58.60
20897;BME280;10608;42.600;23.398;2023-11-19T01:57:45;38781.69;;;-138.15;58.67
20897;BME280;10608;42.600;23.398;2023-11-19T02:00:12;38813.13;;;-138.15;58.62
20897;BME280;10608;42.600;23.398;2023-11-19T02:02:39;38791.50;;;-138.15;57.71
20897;BME280;10608;42.600;23.398;2023-11-19T02:05:06;38850.47;;;-138.15;57.34
20897;BME280;10608;42.600;23.398;2023-11-19T02:07:31;38850.47;;;-138.15;57.41
20897;BME280;10608;42.600;23.398;2023-11-19T02:09:57;38834.75;;;-138.15;57.44
20897;BME280;10608;42.600;23.398;2023-11-19T02:12:26;38848.50;;;-138.15;57.05
20897;BME280;10608;42.600;23.398;2023-11-19T02:14:53;38846.53;;;-138.15;57.15
20897;BME280;10608;42.600;23.398;2023-11-19T02:17:29;38860.31;;;-138.15;56.82
20897;BME280;10608;42.600;23.398;2023-11-19T02:19:59;38876.03;;;-138.15;56.32
20897;BME280;10608;42.600;23.398;2023-11-19T02:22:24;38876.03;;;-138.15;56.83
20897;BME280;10608;42.600;23.398;2023-11-19T02:24:51;38881.91;;;-138.15;56.31
20897;BME280;10608;42.600;23.398;2023-11-19T02:29:54;38856.38;;;-138.15;56.40
20897;BME280;10608;42.600;23.398;2023-11-19T02:32:19;38885.84;;;-138.15;56.35
20897;BME280;10608;42.600;23.398;2023-11-19T02:34:45;38903.53;;;-138.15;56.28
20897;BME280;10608;42.600;23.398;2023-11-19T02:37:11;38879.97;;;-138.15;56.64
20897;BME280;10608;42.600;23.398;2023-11-19T02:39:37;38921.22;;;-138.15;56.49
20897;BME280;10608;42.600;23.398;2023-11-19T02:42:02;38876.03;;;-138.15;56.49
20897;BME280;10608;42.600;23.398;2023-11-19T02:44:28;38881.91;;;-138.15;56.39
20897;BME280;10608;42.600;23.398;2023-11-19T02:46:55;38903.53;;;-138.15;56.87
20897;BME280;10608;42.600;23.398;2023-11-19T02:49:25;38889.78;;;-138.15;56.67
20897;BME280;10608;42.600;23.398;2023-11-19T02:51:50;38891.75;;;-138.15;56.95
20897;BME280;10608;42.600;23.398;2023-11-19T02:54:15;38878.00;;;-138.15;56.79
20897;BME280;10608;42.600;23.398;2023-11-19T02:56:44;38917.31;;;-138.15;56.71
20897;BME280;10608;42.600;23.398;2023-11-19T02:59:13;38942.84;;;-138.15;57.22
20897;BME280;10608;42.600;23.398;2023-11-19T03:01:52;38895.69;;;-138.15;57.53
20897;BME280;10608;42.600;23.398;2023-11-19T03:04:17;38940.88;;;-138.15;58.14
20897;BME280;10608;42.600;23.398;2023-11-19T03:06:45;38899.63;;;-138.15;57.97
20897;BME280;10608;42.600;23.398;2023-11-19T03:09:11;38933.03;;;-138.15;58.41
20897;BME280;10608;42.600;23.398;2023-11-19T03:11:37;38927.13;;;-138.15;58.24
20897;BME280;10608;42.600;23.398;2023-11-19T03:14:02;38948.75;;;-138.15;58.11
20897;BME280;10608;42.600;23.398;2023-11-19T03:16:30;38942.84;;;-138.15;57.70
20897;BME280;10608;42.600;23.398;2023-11-19T03:18:56;38921.22;;;-138.15;58.04
20897;BME280;10608;42.600;23.398;2023-11-19T03:21:29;38919.28;;;-138.15;58.48
20897;BME280;10608;42.600;23.398;2023-11-19T03:23:56;38915.34;;;-138.15;58.08
20897;BME280;10608;42.600;23.398;2023-11-19T03:26:23;38925.16;;;-138.15;58.16
20897;BME280;10608;42.600;23.398;2023-11-19T03:28:48;38925.16;;;-138.15;58.18
20897;BME280;10608;42.600;23.398;2023-11-19T03:31:14;38927.13;;;-138.15;57.53
20897;BME280;10608;42.600;23.398;2023-11-19T03:33:39;38913.38;;;-138.15;56.83
20897;BME280;10608;42.600;23.398;2023-11-19T03:36:05;38895.69;;;-138.15;56.83
20897;BME280;10608;42.600;23.398;2023-11-19T03:38:30;38911.41;;;-138.15;57.17
20897;BME280;10608;42.600;23.398;2023-11-19T03:40:56;38931.06;;;-138.15;56.97
20897;BME280;10608;42.600;23.398;2023-11-19T03:43:21;38913.38;;;-138.15;57.65
20897;BME280;10608;42.600;23.398;2023-11-19T03:45:46;38887.81;;;-138.15;57.64
20897;BME280;10608;42.600;23.398;2023-11-19T03:48:13;38887.81;;;-138.15;56.75
20897;BME280;10608;42.600;23.398;2023-11-19T03:50:41;38915.34;;;-138.15;56.12
20897;BME280;10608;42.600;23.398;2023-11-19T03:53:06;38919.28;;;-138.15;56.20
20897;BME280;10608;42.600;23.398;2023-11-19T03:55:32;38903.53;;;-138.15;56.86
20897;BME280;10608;42.600;23.398;2023-11-19T03:57:57;38923.19;;;-138.15;56.78
20897;BME280;10608;42.600;23.398;2023-11-19T04:00:23;38903.53;;;-138.15;56.61
20897;BME280;10608;42.600;23.398;2023-11-19T04:02:49;38903.53;;;-138.15;57.30
20897;BME280;10608;42.600;23.398;2023-11-19T04:05:14;38879.97;;;-138.15;56.93
20897;BME280;10608;42.600;23.398;2023-11-19T04:07:39;38907.47;;;-138.15;56.42
20897;BME280;10608;42.600;23.398;2023-11-19T04:10:05;38899.63;;;-138.15;56.47
20897;BME280;10608;42.600;23.398;2023-11-19T04:12:31;38899.63;;;-138.15;56.36
20897;BME280;10608;42.600;23.398;2023-11-19T04:14:56;38911.41;;;-138.15;56.45
20897;BME280;10608;42.600;23.398;2023-11-19T04:17:22;38893.72;;;-138.15;55.92
20897;BME280;10608;42.600;23.398;2023-11-19T04:19:48;38901.56;;;-138.15;56.71
20897;BME280;10608;42.600;23.398;2023-11-19T04:22:14;38915.34;;;-138.15;56.84
20897;BME280;10608;42.600;23.398;2023-11-19T04:24:39;38911.41;;;-138.15;56.83
20897;BME280;10608;42.600;23.398;2023-11-19T04:27:06;38915.34;;;-138.15;57.04
20897;BME280;10608;42.600;23.398;2023-11-19T04:29:31;38899.63;;;-138.15;57.38
20897;BME280;10608;42.600;23.398;2023-11-19T04:31:57;38907.47;;;-138.15;57.46
20897;BME280;10608;42.600;23.398;2023-11-19T04:34:22;38907.47;;;-138.15;57.05
20897;BME280;10608;42.600;23.398;2023-11-19T04:36:48;38887.81;;;-138.15;56.96
20897;BME280;10608;42.600;23.398;2023-11-19T04:39:14;38895.69;;;-138.15;57.16
20897;BME280;10608;42.600;23.398;2023-11-19T04:41:49;38944.81;;;-138.15;57.19
20897;BME280;10608;42.600;23.398;2023-11-19T04:44:15;38950.72;;;-138.15;56.79
20897;BME280;10608;42.600;23.398;2023-11-19T04:46:41;38942.84;;;-138.15;56.88
20897;BME280;10608;42.600;23.398;2023-11-19T04:49:09;38927.13;;;-138.15;56.94
20897;BME280;10608;42.600;23.398;2023-11-19T04:51:42;38919.28;;;-138.15;57.22
20897;BME280;10608;42.600;23.398;2023-11-19T04:54:09;38962.50;;;-138.15;56.81
20897;BME280;10608;42.600;23.398;2023-11-19T04:56:35;38940.88;;;-138.15;56.49
20897;BME280;10608;42.600;23.398;2023-11-19T04:59:02;38927.13;;;-138.15;56.78
20897;BME280;10608;42.600;23.398;2023-11-19T05:01:28;38970.38;;;-138.15;56.08
20897;BME280;10608;42.600;23.398;2023-11-19T05:03:53;38931.06;;;-138.15;55.84
20897;BME280;10608;42.600;23.398;2023-11-19T05:06:19;38992.00;;;-138.15;55.71
20897;BME280;10608;42.600;23.398;2023-11-19T05:08:45;38962.50;;;-138.15;55.89
20897;BME280;10608;42.600;23.398;2023-11-19T05:11:11;38986.09;;;-138.15;54.91
20897;BME280;10608;42.600;23.398;2023-11-19T05:13:38;38954.66;;;-138.15;55.19
20897;BME280;10608;42.600;23.398;2023-11-19T05:16:03;38982.16;;;-138.15;55.07
20897;BME280;10608;42.600;23.398;2023-11-19T05:18:29;38982.16;;;-138.15;54.88
20897;BME280;10608;42.600;23.398;2023-11-19T05:20:54;38988.06;;;-138.15;54.60
20897;BME280;10608;42.600;23.398;2023-11-19T05:23:20;38997.88;;;-138.15;54.84
20897;BME280;10608;42.600;23.398;2023-11-19T05:25:45;38988.06;;;-138.15;54.80
20897;BME280;10608;42.600;23.398;2023-11-19T05:28:11;39001.81;;;-138.15;54.82
20897;BME280;10608;42.600;23.398;2023-11-19T05:30:36;38990.03;;;-138.15;54.96
20897;BME280;10608;42.600;23.398;2023-11-19T05:33:01;38974.31;;;-138.15;55.25
20897;BME280;10608;42.600;23.398;2023-11-19T05:35:27;38997.88;;;-138.15;54.88
20897;BME280;10608;42.600;23.398;2023-11-19T05:37:52;39003.78;;;-138.15;54.96
20897;BME280;10608;42.600;23.398;2023-11-19T05:40:18;39015.59;;;-138.15;54.86
20897;BME280;10608;42.600;23.398;2023-11-19T05:42:45;39007.72;;;-138.15;54.95
20897;BME280;10608;42.600;23.398;2023-11-19T05:45:11;39005.75;;;-138.15;54.94
20897;BME280;10608;42.600;23.398;2023-11-19T05:47:37;39021.47;;;-138.15;55.39
20897;BME280;10608;42.600;23.398;2023-11-19T05:50:03;38997.88;;;-138.15;55.25
20897;BME280;10608;42.600;23.398;2023-11-19T05:52:31;39003.78;;;-138.15;55.44
20897;BME280;10608;42.600;23.398;2023-11-19T05:55:00;38992.00;;;-138.15;55.98
20897;BME280;10608;42.600;23.398;2023-11-19T05:57:27;38980.19;;;-138.15;55.75
20897;BME280;10608;42.600;23.398;2023-11-19T05:59:54;38997.88;;;-138.15;55.45
20897;BME280;10608;42.600;23.398;2023-11-19T06:02:20;38995.94;;;-138.15;55.48
20897;BME280;10608;42.600;23.398;2023-11-19T06:04:45;38958.59;;;-138.15;55.82
20897;BME280;10608;42.600;23.398;2023-11-19T06:07:13;38990.03;;;-138.15;55.89
20897;BME280;10608;42.600;23.398;2023-11-19T06:09:38;38974.31;;;-138.15;56.04
20897;BME280;10608;42.600;23.398;2023-11-19T06:12:05;39001.81;;;-138.15;55.75
20897;BME280;10608;42.600;23.398;2023-11-19T06:14:32;39011.66;;;-138.15;55.81
20897;BME280;10608;42.600;23.398;2023-11-19T06:16:58;38982.16;;;-138.15;55.95
20897;BME280;10608;42.600;23.398;2023-11-19T06:19:23;38980.19;;;-138.15;56.10
20897;BME280;10608;42.600;23.398;2023-11-19T06:21:50;38956.63;;;-138.15;56.15
20897;BME280;10608;42.600;23.398;2023-11-19T06:24:15;38990.03;;;-138.15;56.15
20897;BME280;10608;42.600;23.398;2023-11-19T06:26:41;38974.31;;;-138.15;56.53
20897;BME280;10608;42.600;23.398;2023-11-19T06:29:06;38980.19;;;-138.15;56.24
20897;BME280;10608;42.600;23.398;2023-11-19T06:31:31;38738.44;;;-138.15;56.37
20897;BME280;10608;42.600;23.398;2023-11-19T06:33:57;38952.69;;;-138.15;55.90
20897;BME280;10608;42.600;23.398;2023-11-19T06:36:22;38964.47;;;-138.15;56.57
20897;BME280;10608;42.600;23.398;2023-11-19T06:38:48;38970.38;;;-138.15;56.12
20897;BME280;10608;42.600;23.398;2023-11-19T06:41:13;38954.66;;;-138.15;55.86
20897;BME280;10608;42.600;23.398;2023-11-19T06:43:38;39001.81;;;-138.15;55.89
20897;BME280;10608;42.600;23.398;2023-11-19T06:46:04;38974.31;;;-138.15;55.77
20897;BME280;10608;42.600;23.398;2023-11-19T06:48:33;38978.22;;;-138.15;55.88
20897;BME280;10608;42.600;23.398;2023-11-19T06:50:59;38978.22;;;-138.15;55.43
20897;BME280;10608;42.600;23.398;2023-11-19T06:53:25;38992.00;;;-138.15;55.31
20897;BME280;10608;42.600;23.398;2023-11-19T06:55:53;38966.44;;;-138.15;55.33
20897;BME280;10608;42.600;23.398;2023-11-19T06:58:19;38982.16;;;-138.15;54.62
20897;BME280;10608;42.600;23.398;2023-11-19T07:00:44;38976.28;;;-138.15;53.61
20897;BME280;10608;42.600;23.398;2023-11-19T07:03:11;39096.16;;;-138.15;53.12
20897;BME280;10608;42.600;23.398;2023-11-19T07:05:36;39074.56;;;-138.15;49.61
20897;BME280;10608;42.600;23.398;2023-11-19T07:08:06;38935.00;;;-138.15;46.50
20897;BME280;10608;42.600;23.398;2023-11-19T07:10:32;39025.41;;;-138.15;46.16
20897;BME280;10608;42.600;23.398;2023-11-19T07:12:59;39076.50;;;-138.15;45.95
20897;BME280;10608;42.600;23.398;2023-11-19T07:15:24;39107.97;;;-138.15;46.89
20897;BME280;10608;42.600;23.398;2023-11-19T07:17:50;38936.97;;;-138.15;46.64
20897;BME280;10608;42.600;23.398;2023-11-19T07:20:15;39094.22;;;-138.15;47.71
20897;BME280;10608;42.600;23.398;2023-11-19T07:22:43;39131.56;;;-138.15;47.52
20897;BME280;10608;42.600;23.398;2023-11-19T07:25:14;39123.69;;;-138.15;47.83
20897;BME280;10608;42.600;23.398;2023-11-19T07:27:39;39096.16;;;-138.15;47.94
20897;BME280;10608;42.600;23.398;2023-11-19T07:30:06;39131.56;;;-138.15;48.15
20897;BME280;10608;42.600;23.398;2023-11-19T07:32:34;39096.16;;;-138.15;48.64
20897;BME280;10608;42.600;23.398;2023-11-19T07:35:00;39088.31;;;-138.15;48.89
20897;BME280;10608;42.600;23.398;2023-11-19T07:37:26;39143.34;;;-138.15;48.15
20897;BME280;10608;42.600;23.398;2023-11-19T07:39:51;39155.16;;;-138.15;48.65
20897;BME280;10608;42.600;23.398;2023-11-19T07:42:16;39135.47;;;-138.15;48.74
20897;BME280;10608;42.600;23.398;2023-11-19T07:44:43;38938.94;;;-138.15;48.80
20897;BME280;10608;42.600;23.398;2023-11-19T07:47:08;39155.16;;;-138.15;48.81
20897;BME280;10608;42.600;23.398;2023-11-19T07:49:34;39143.34;;;-138.15;48.71
20897;BME280;10608;42.600;23.398;2023-11-19T07:51:59;39212.16;;;-138.15;48.18
20897;BME280;10608;42.600;23.398;2023-11-19T07:54:25;39300.59;;;-138.15;45.63
20897;BME280;10608;42.600;23.398;2023-11-19T07:56:50;39263.25;;;-138.15;39.86
20897;BME280;10608;42.600;23.398;2023-11-19T07:59:16;39365.47;;;-138.15;36.34
20897;BME280;10608;42.600;23.398;2023-11-19T08:01:41;39644.63;;;-138.15;36.94
20897;BME280;10608;42.600;23.398;2023-11-19T08:04:06;39803.88;;;-138.15;38.75
20897;BME280;10608;42.600;23.398;2023-11-19T08:06:32;39803.88;;;-138.15;38.98
20897;BME280;10608;42.600;23.398;2023-11-19T08:08:57;39847.13;;;-138.15;38.61
20897;BME280;10608;42.600;23.398;2023-11-19T08:11:23;39797.97;;;-138.15;34.99
20897;BME280;10608;42.600;23.398;2023-11-19T08:13:49;39988.69;;;-138.15;32.77
20897;BME280;10608;42.600;23.398;2023-11-19T08:16:15;40397.66;;;-138.15;32.00
20897;BME280;10608;42.600;23.398;2023-11-19T08:18:43;40741.75;;;-138.15;30.29
20897;BME280;10608;42.600;23.398;2023-11-19T08:21:09;41597.25;;;-138.15;29.12
20897;BME280;10608;42.600;23.398;2023-11-19T08:23:37;42374.25;;;-138.15;28.42
20897;BME280;10608;42.600;23.398;2023-11-19T08:26:04;42771.69;;;-138.15;28.18
20897;BME280;10608;42.600;23.398;2023-11-19T08:28:30;42934.97;;;-138.15;27.65
20897;BME280;10608;42.600;23.398;2023-11-19T08:30:56;43261.63;;;-138.15;28.74
20897;BME280;10608;42.600;23.398;2023-11-19T08:33:21;43356.06;;;-138.15;28.93
20897;BME280;10608;42.600;23.398;2023-11-19T08:35:48;43474.13;;;-138.15;29.39
20897;BME280;10608;42.600;23.398;2023-11-19T08:38:13;43584.34;;;-138.15;30.41
20897;BME280;10608;42.600;23.398;2023-11-19T08:40:38;43623.69;;;-138.15;30.65
20897;BME280;10608;42.600;23.398;2023-11-19T08:43:04;43678.78;;;-138.15;30.44
20897;BME280;10608;42.600;23.398;2023-11-19T08:45:30;43584.34;;;-138.15;30.65
20897;BME280;10608;42.600;23.398;2023-11-19T08:47:57;43584.34;;;-138.15;29.99
20897;BME280;10608;42.600;23.398;2023-11-19T08:50:22;43399.34;;;-138.15;28.97
20897;BME280;10608;42.600;23.398;2023-11-19T08:52:47;43574.50;;;-138.15;29.02
20897;BME280;10608;42.600;23.398;2023-11-19T08:55:13;43625.66;;;-138.15;29.32
20897;BME280;10608;42.600;23.398;2023-11-19T08:57:39;43613.84;;;-138.15;30.18
20897;BME280;10608;42.600;23.398;2023-11-19T09:00:05;43635.50;;;-138.15;29.19
20897;BME280;10608;42.600;23.398;2023-11-19T09:02:35;43698.47;;;-138.15;30.10
20897;BME280;10608;42.600;23.398;2023-11-19T09:05:02;43724.06;;;-138.15;29.85
20897;BME280;10608;42.600;23.398;2023-11-19T09:07:28;43765.38;;;-138.15;30.09
20897;BME280;10608;42.600;23.398;2023-11-19T09:09:53;43733.91;;;-138.15;30.26
20897;BME280;10608;42.600;23.398;2023-11-19T09:12:19;43840.16;;;-138.15;30.59
20897;BME280;10608;42.600;23.398;2023-11-19T09:14:44;43757.50;;;-138.15;29.99
20897;BME280;10608;42.600;23.398;2023-11-19T09:17:10;43739.78;;;-138.15;29.72
20897;BME280;10608;42.600;23.398;2023-11-19T09:19:36;43800.81;;;-138.15;29.75
20897;BME280;10608;42.600;23.398;2023-11-19T09:22:01;43804.75;;;-138.15;29.42
20897;BME280;10608;42.600;23.398;2023-11-19T09:24:27;43840.16;;;-138.15;29.71
20897;BME280;10608;42.600;23.398;2023-11-19T09:26:53;43932.66;;;-138.15;30.91
20897;BME280;10608;42.600;23.398;2023-11-19T09:29:20;43773.25;;;-138.15;30.82
20897;BME280;10608;42.600;23.398;2023-11-19T09:31:46;43820.47;;;-138.15;30.14
20897;BME280;10608;42.600;23.398;2023-11-19T09:34:12;43889.38;;;-138.15;30.21
20897;BME280;10608;42.600;23.398;2023-11-19T09:36:37;44058.63;;;-138.15;30.54
20897;BME280;10608;42.600;23.398;2023-11-19T09:39:02;44040.91;;;-138.15;30.93
20897;BME280;10608;42.600;23.398;2023-11-19T09:41:30;44092.06;;;-138.15;31.21
20897;BME280;10608;42.600;23.398;2023-11-19T09:43:56;44060.59;;;-138.15;31.38
20897;BME280;10608;42.600;23.398;2023-11-19T09:46:21;44131.44;;;-138.15;31.69
20897;BME280;10608;42.600;23.398;2023-11-19T09:48:52;44074.38;;;-138.15;31.26
20897;BME280;10608;42.600;23.398;2023-11-19T09:51:19;44096.00;;;-138.15;31.01
20897;BME280;10608;42.600;23.398;2023-11-19T09:53:45;43987.78;;;-138.15;30.48
20897;BME280;10608;42.600;23.398;2023-11-19T09:56:11;44021.22;;;-138.15;30.60
20897;BME280;10608;42.600;23.398;2023-11-19T09:58:37;44107.81;;;-138.15;30.96
20897;BME280;10608;42.600;23.398;2023-11-19T10:01:03;44105.84;;;-138.15;31.54
20897;BME280;10608;42.600;23.398;2023-11-19T10:03:35;44220.00;;;-138.15;32.54
20897;BME280;10608;42.600;23.398;2023-11-19T10:06:03;44245.59;;;-138.15;33.10
20897;BME280;10608;42.600;23.398;2023-11-19T10:08:29;44251.50;;;-138.15;34.21
20897;BME280;10608;42.600;23.398;2023-11-19T10:10:55;44359.75;;;-138.15;33.61
20897;BME280;10608;42.600;23.398;2023-11-19T10:13:26;44349.91;;;-138.15;34.48
20897;BME280;10608;42.600;23.398;2023-11-19T10:15:52;44324.31;;;-138.15;35.32
20897;BME280;10608;42.600;23.398;2023-11-19T10:18:18;44387.31;;;-138.15;34.66
20897;BME280;10608;42.600;23.398;2023-11-19T10:20:43;44399.13;;;-138.15;35.40
20897;BME280;10608;42.600;23.398;2023-11-19T10:23:10;44347.94;;;-138.15;35.50
20897;BME280;10608;42.600;23.398;2023-11-19T10:25:36;44347.94;;;-138.15;35.91
20897;BME280;10608;42.600;23.398;2023-11-19T10:28:02;44353.84;;;-138.15;35.67
20897;BME280;10608;42.600;23.398;2023-11-19T10:30:29;44428.66;;;-138.15;35.69
20897;BME280;10608;42.600;23.398;2023-11-19T10:33:12;44387.31;;;-138.15;36.26
20897;BME280;10608;42.600;23.398;2023-11-19T10:35:56;44312.50;;;-138.15;36.09
20897;BME280;10608;42.600;23.398;2023-11-19T10:38:22;44322.34;;;-138.15;35.62
20897;BME280;10608;42.600;23.398;2023-11-19T10:40:49;44257.41;;;-138.15;35.16
20897;BME280;10608;42.600;23.398;2023-11-19T10:43:16;44218.03;;;-138.15;34.41
20897;BME280;10608;42.600;23.398;2023-11-19T10:45:41;44097.97;;;-138.15;33.36
20897;BME280;10608;42.600;23.398;2023-11-19T10:48:06;43956.28;;;-138.15;31.93
20897;BME280;10608;42.600;23.398;2023-11-19T10:50:33;44011.38;;;-138.15;30.88
20897;BME280;10608;42.600;23.398;2023-11-19T10:52:59;44033.03;;;-138.15;30.83
20897;BME280;10608;42.600;23.398;2023-11-19T10:55:34;43997.59;;;-138.15;31.31
20897;BME280;10608;42.600;23.398;2023-11-19T10:58:09;44190.50;;;-138.15;31.90
20897;BME280;10608;42.600;23.398;2023-11-19T11:00:45;44229.84;;;-138.15;32.89
20897;BME280;10608;42.600;23.398;2023-11-19T11:03:26;44320.38;;;-138.15;33.01
20897;BME280;10608;42.600;23.398;2023-11-19T11:05:55;44344.00;;;-138.15;34.60
20897;BME280;10608;42.600;23.398;2023-11-19T11:08:21;44397.16;;;-138.15;34.88
20897;BME280;10608;42.600;23.398;2023-11-19T11:10:54;44462.09;;;-138.15;35.56
20897;BME280;10608;42.600;23.398;2023-11-19T11:13:22;44466.03;;;-138.15;35.07
20897;BME280;10608;42.600;23.398;2023-11-19T11:15:48;44426.69;;;-138.15;35.83
20897;BME280;10608;42.600;23.398;2023-11-19T11:18:14;44422.75;;;-138.15;37.16
20897;BME280;10608;42.600;23.398;2023-11-19T11:20:40;44440.47;;;-138.15;36.16
20897;BME280;10608;42.600;23.398;2023-11-19T11:25:56;44442.41;;;-138.15;36.13
20897;BME280;10608;42.600;23.398;2023-11-19T11:28:36;44418.81;;;-138.15;37.55
20897;BME280;10608;42.600;23.398;2023-11-19T11:39:28;44538.88;;;-138.15;37.57
20897;BME280;10608;42.600;23.398;2023-11-19T11:50:09;44369.59;;;-138.15;37.88
20897;BME280;10608;42.600;23.398;2023-11-19T11:55:37;44473.91;;;-138.15;38.37
20897;BME280;10608;42.600;23.398;2023-11-19T11:58:05;44359.75;;;-138.15;39.13
20897;BME280;10608;42.600;23.398;2023-11-19T12:00:38;44436.53;;;-138.15;38.36
20897;BME280;10608;42.600;23.398;2023-11-19T12:03:05;44328.25;;;-138.15;39.33
20897;BME280;10608;42.600;23.398;2023-11-19T12:05:31;44391.25;;;-138.15;39.37
20897;BME280;10608;42.600;23.398;2023-11-19T12:08:05;44355.81;;;-138.15;39.29
20897;BME280;10608;42.600;23.398;2023-11-19T12:10:38;44324.31;;;-138.15;39.49
20897;BME280;10608;42.600;23.398;2023-11-19T12:13:09;44284.97;;;-138.15;38.70
20897;BME280;10608;42.600;23.398;2023-11-19T12:18:32;44379.44;;;-138.15;39.83
20897;BME280;10608;42.600;23.398;2023-11-19T12:21:01;44359.75;;;-138.15;40.54
20897;BME280;10608;42.600;23.398;2023-11-19T12:23:30;44320.38;;;-138.15;39.96
20897;BME280;10608;42.600;23.398;2023-11-19T12:25:57;44251.50;;;-138.15;40.63
20897;BME280;10608;42.600;23.398;2023-11-19T12:28:23;44269.22;;;-138.15;39.94
20897;BME280;10608;42.600;23.398;2023-11-19T12:30:52;44275.13;;;-138.15;40.28
20897;BME280;10608;42.600;23.398;2023-11-19T12:33:18;44253.47;;;-138.15;40.33
20897;BME280;10608;42.600;23.398;2023-11-19T12:35:46;44202.28;;;-138.15;40.52
20897;BME280;10608;42.600;23.398;2023-11-19T12:38:25;44160.97;;;-138.15;40.52
20897;BME280;10608;42.600;23.398;2023-11-19T12:43:29;44168.84;;;-138.15;41.00
20897;BME280;10608;42.600;23.398;2023-11-19T12:45:55;44135.38;;;-138.15;41.14
20897;BME280;10608;42.600;23.398;2023-11-19T12:48:21;44170.81;;;-138.15;41.18
20897;BME280;10608;42.600;23.398;2023-11-19T12:50:57;44096.00;;;-138.15;41.64
20897;BME280;10608;42.600;23.398;2023-11-19T12:53:24;44027.13;;;-138.15;42.29
20897;BME280;10608;42.600;23.398;2023-11-19T12:55:53;44025.16;;;-138.15;41.31
20897;BME280;10608;42.600;23.398;2023-11-19T12:58:36;44031.06;;;-138.15;42.03